createdAt,value
2022-12-03T00:00:15.688Z,95447.25
2022-12-03T00:02:45.132Z,95444.56
2022-12-03T00:05:12.932Z,95441.09
2022-12-03T00:07:40.848Z,95441.91
2022-12-03T00:10:10.470Z,95440.03
2022-12-03T00:12:39.691Z,95446.28
2022-12-03T00:15:08.719Z,95443.16
2022-12-03T00:17:36.409Z,95448.16
2022-12-03T00:20:05.015Z,95449.81
2022-12-03T00:22:32.729Z,95442.13
2022-12-03T00:25:00.564Z,95449.09
2022-12-03T00:27:28.252Z,95443.75
2022-12-03T00:29:57.302Z,95449.81
2022-12-03T00:32:24.982Z,95448.50
2022-12-03T00:34:52.890Z,95457.13
2022-12-03T00:37:20.795Z,95448.28
2022-12-03T00:39:48.540Z,95447.81
2022-12-03T00:42:16.245Z,95443.63
2022-12-03T00:44:44.034Z,95436.88
2022-12-03T00:47:13.135Z,95443.38
2022-12-03T00:49:41.291Z,95444.34
2022-12-03T00:52:08.993Z,95440.63
2022-12-03T00:54:38.469Z,95430.97
2022-12-03T00:57:06.173Z,95436.75
2022-12-03T00:59:33.885Z,95440.13
2022-12-03T01:02:01.669Z,95439.44
2022-12-03T01:04:30.901Z,95446.53
2022-12-03T01:06:58.608Z,95449.19
2022-12-03T01:09:26.405Z,95450.97
2022-12-03T01:11:54.087Z,95453.41
2022-12-03T01:14:21.890Z,95437.69
2022-12-03T01:16:50.150Z,95443.03
2022-12-03T01:19:19.327Z,95442.94
2022-12-03T01:21:50.611Z,95439.53
2022-12-03T01:24:22.214Z,95452.34
2022-12-03T01:26:49.898Z,95442.13
2022-12-03T01:29:17.604Z,95441.06
2022-12-03T01:32:02.862Z,95445.72
2022-12-03T01:34:30.578Z,95441.31
2022-12-03T01:36:59.634Z,95453.03
2022-12-03T01:39:27.325Z,95458.84
2022-12-03T01:41:56.203Z,95460.69
2022-12-03T01:44:26.709Z,95449.41
2022-12-03T01:46:57.235Z,95460.56
2022-12-03T01:49:28.266Z,95450.69
2022-12-03T01:51:56.817Z,95448.38
2022-12-03T01:54:29.259Z,95450.91
2022-12-03T01:56:57.307Z,95456.25
2022-12-03T01:59:32.323Z,95445.34
2022-12-03T02:02:01.489Z,95441.16
2022-12-03T02:04:29.323Z,95442.34
2022-12-03T02:06:57.091Z,95440.72
2022-12-03T02:09:26.265Z,95443.13
2022-12-03T02:11:53.970Z,95450.09
2022-12-03T02:14:23.049Z,95453.56
2022-12-03T02:16:50.747Z,95461.69
2022-12-03T02:19:25.627Z,95461.13
2022-12-03T02:22:00.173Z,95449.63
2022-12-03T02:24:38.379Z,95455.06
2022-12-03T02:27:07.489Z,95447.84
2022-12-03T02:29:35.244Z,95451.59
2022-12-03T02:32:04.900Z,95452.31
2022-12-03T02:34:38.490Z,95460.91
2022-12-03T02:37:08.649Z,95449.03
2022-12-03T02:39:39.645Z,95450.91
2022-12-03T02:42:26.992Z,95442.88
2022-12-03T02:44:56.655Z,95445.78
2022-12-03T02:47:26.535Z,95447.06
2022-12-03T02:49:54.324Z,95449.13
2022-12-03T02:52:22.218Z,95442.75
2022-12-03T02:54:50.453Z,95443.78
2022-12-03T02:57:19.685Z,95442.28
2022-12-03T02:59:47.640Z,95440.88
2022-12-03T03:02:16.121Z,95444.28
2022-12-03T03:04:44.267Z,95448.59
2022-12-03T03:07:12.489Z,95446.38
2022-12-03T03:09:40.739Z,95444.75
2022-12-03T03:12:08.547Z,95449.94
2022-12-03T03:14:37.658Z,95456.91
2022-12-03T03:17:05.521Z,95450.53
2022-12-03T03:19:33.708Z,95442.28
2022-12-03T03:22:01.726Z,95444.06
2022-12-03T03:24:29.439Z,95439.38
2022-12-03T03:26:57.177Z,95425.88
2022-12-03T03:29:25.032Z,95422.41
2022-12-03T03:31:54.217Z,95426.25
2022-12-03T03:34:22.043Z,95438.56
2022-12-03T03:36:49.869Z,95445.06
2022-12-03T03:39:17.691Z,95433.53
2022-12-03T03:41:47.400Z,95435.88
2022-12-03T03:44:15.452Z,95431.22
2022-12-03T03:46:44.154Z,95430.16
2022-12-03T03:49:13.931Z,95435.06
2022-12-03T03:51:41.951Z,95431.59
2022-12-03T03:54:09.950Z,95432.41
2022-12-03T03:56:38.227Z,95444.00
2022-12-03T03:59:06.251Z,95430.31
2022-12-03T04:01:34.334Z,95431.38
2022-12-03T04:04:02.346Z,95434.13
2022-12-03T04:06:31.437Z,95431.81
2022-12-03T04:08:59.111Z,95430.41
2022-12-03T04:11:44.149Z,95427.97
2022-12-03T04:14:11.919Z,95425.31
2022-12-03T04:16:39.703Z,95424.38
2022-12-03T04:19:07.400Z,95428.09
2022-12-03T04:21:53.974Z,95418.00
2022-12-03T04:24:21.642Z,95419.13
2022-12-03T04:27:06.913Z,95418.56
2022-12-03T04:29:34.621Z,95424.25
2022-12-03T04:32:19.987Z,95427.06
2022-12-03T04:35:05.338Z,95426.56
2022-12-03T04:37:34.464Z,95431.44
2022-12-03T04:40:02.116Z,95430.72
2022-12-03T04:42:29.838Z,95437.09
2022-12-03T04:44:58.381Z,95440.00
2022-12-03T04:47:26.097Z,95440.25
2022-12-03T04:49:53.804Z,95446.44
2022-12-03T04:52:22.313Z,95436.88
2022-12-03T04:54:53.440Z,95445.16
2022-12-03T04:57:21.299Z,95442.72
2022-12-03T04:59:49.014Z,95442.00
2022-12-03T05:02:16.827Z,95436.19
2022-12-03T05:04:44.632Z,95440.72
2022-12-03T05:07:12.384Z,95446.06
2022-12-03T05:09:40.083Z,95442.00
2022-12-03T05:12:12.646Z,95445.00
2022-12-03T05:14:40.327Z,95446.97
2022-12-03T05:17:08.123Z,95446.28
2022-12-03T05:19:53.213Z,95443.03
2022-12-03T05:22:20.938Z,95436.28
2022-12-03T05:24:48.619Z,95440.59
2022-12-03T05:27:23.194Z,95443.97
2022-12-03T05:29:51.520Z,95454.53
2022-12-03T05:32:19.259Z,95454.75
2022-12-03T05:34:46.996Z,95450.50
2022-12-03T05:37:14.884Z,95447.09
2022-12-03T05:39:43.022Z,95453.72
2022-12-03T05:42:27.795Z,95445.34
2022-12-03T05:44:57.144Z,95440.91
2022-12-03T05:47:24.954Z,95457.06
2022-12-03T05:49:52.679Z,95454.53
2022-12-03T05:52:20.406Z,95459.63
2022-12-03T05:54:48.398Z,95457.78
2022-12-03T05:57:16.127Z,95467.75
2022-12-03T05:59:43.853Z,95458.25
2022-12-03T06:02:13.051Z,95461.13
2022-12-03T06:04:40.917Z,95454.09
2022-12-03T06:07:13.766Z,95455.94
2022-12-03T06:09:41.982Z,95449.19
2022-12-03T06:12:09.713Z,95446.44
2022-12-03T06:14:37.455Z,95443.41
2022-12-03T06:17:05.277Z,95450.50
2022-12-03T06:19:34.536Z,95446.06
2022-12-03T06:22:02.294Z,95438.88
2022-12-03T06:24:30.190Z,95437.97
2022-12-03T06:26:57.880Z,95442.72
2022-12-03T06:29:25.612Z,95440.88
2022-12-03T06:31:53.360Z,95441.09
2022-12-03T06:34:21.279Z,95444.69
2022-12-03T06:36:50.578Z,95446.22
2022-12-03T06:39:18.407Z,95447.03
2022-12-03T06:41:46.157Z,95452.09
2022-12-03T06:44:13.900Z,95438.63
2022-12-03T06:46:41.710Z,95442.72
2022-12-03T06:49:09.763Z,95441.75
2022-12-03T06:51:37.900Z,95437.47
2022-12-03T06:54:07.104Z,95436.50
2022-12-03T06:56:40.411Z,95431.88
2022-12-03T06:59:12.530Z,95430.25
2022-12-03T07:01:40.323Z,95436.50
2022-12-03T07:04:08.129Z,95431.75
2022-12-03T07:06:35.847Z,95422.03
2022-12-03T07:09:03.531Z,95421.44
2022-12-03T07:11:32.594Z,95436.19
2022-12-03T07:14:05.585Z,95440.03
2022-12-03T07:16:34.404Z,95449.09
2022-12-03T07:19:02.249Z,95444.69
2022-12-03T07:21:30.023Z,95432.63
2022-12-03T07:23:57.728Z,95438.44
2022-12-03T07:26:25.489Z,95438.81
2022-12-03T07:28:54.579Z,95434.50
2022-12-03T07:31:22.886Z,95438.56
2022-12-03T07:33:50.653Z,95429.38
2022-12-03T07:36:18.584Z,95436.56
2022-12-03T07:38:49.981Z,95435.44
2022-12-03T07:41:17.806Z,95434.28
2022-12-03T07:43:45.747Z,95439.94
2022-12-03T07:46:14.871Z,95439.25
2022-12-03T07:48:42.603Z,95443.91
2022-12-03T07:51:15.283Z,95443.09
2022-12-03T07:53:43.389Z,95445.56
2022-12-03T07:56:13.095Z,95435.75
2022-12-03T07:58:40.771Z,95434.28
2022-12-03T08:01:08.706Z,95429.88
2022-12-03T08:03:38.430Z,95431.84
2022-12-03T08:06:06.427Z,95440.44
2022-12-03T08:08:34.111Z,95433.16
2022-12-03T08:11:02.329Z,95435.78
2022-12-03T08:13:30.082Z,95433.00
2022-12-03T08:16:01.667Z,95429.63
2022-12-03T08:18:29.676Z,95423.81
2022-12-03T08:20:59.107Z,95433.81
2022-12-03T08:23:29.753Z,95427.53
2022-12-03T08:26:02.041Z,95426.72
2022-12-03T08:28:30.391Z,95419.06
2022-12-03T08:31:03.555Z,95422.44
2022-12-03T08:33:35.277Z,95427.81
2022-12-03T08:36:13.641Z,95431.97
2022-12-03T08:38:41.377Z,95438.03
2022-12-03T08:41:13.849Z,95431.53
2022-12-03T08:43:43.767Z,95430.13
2022-12-03T08:46:14.341Z,95436.03
2022-12-03T08:48:46.996Z,95429.53
2022-12-03T08:51:23.855Z,95438.50
2022-12-03T08:53:58.264Z,95427.22
2022-12-03T08:56:30.586Z,95433.72
2022-12-03T08:59:01.657Z,95429.78
2022-12-03T09:01:34.787Z,95432.78
2022-12-03T09:04:23.892Z,95428.97
2022-12-03T09:06:53.896Z,95427.81
2022-12-03T09:09:22.880Z,95416.28
2022-12-03T09:11:51.449Z,95417.91
2022-12-03T09:14:21.173Z,95424.44
2022-12-03T09:16:49.520Z,95433.25
2022-12-03T09:19:17.320Z,95441.16
2022-12-03T09:21:47.488Z,95447.47
2022-12-03T09:24:16.668Z,95442.34
2022-12-03T09:26:44.683Z,95432.91
2022-12-03T09:29:13.073Z,95439.09
2022-12-03T09:31:41.185Z,95434.31
2022-12-03T09:34:11.777Z,95432.91
2022-12-03T09:36:39.828Z,95425.34
2022-12-03T09:39:07.505Z,95422.56
2022-12-03T09:41:36.829Z,95416.28
2022-12-03T09:44:05.746Z,95417.47
2022-12-03T09:46:39.313Z,95418.28
2022-12-03T09:49:15.321Z,95409.56
2022-12-03T09:51:44.788Z,95405.34
2022-12-03T09:54:22.870Z,95406.41
2022-12-03T09:56:55.951Z,95407.34
2022-12-03T09:59:27.171Z,95399.78
2022-12-03T10:01:55.642Z,95395.34
2022-12-03T10:04:27.857Z,95387.69
2022-12-03T10:06:57.006Z,95380.03
2022-12-03T10:09:27.108Z,95377.59
2022-12-03T10:11:58.309Z,95385.94
2022-12-03T10:14:26.410Z,95383.59
2022-12-03T10:16:54.274Z,95386.13
2022-12-03T10:19:25.263Z,95384.63
2022-12-03T10:21:53.016Z,95367.06
2022-12-03T10:24:23.460Z,95374.28
2022-12-03T10:26:53.674Z,95363.72
2022-12-03T10:29:29.931Z,95353.13
2022-12-03T10:32:02.673Z,95350.41
2022-12-03T10:34:32.139Z,95352.75
2022-12-03T10:37:15.092Z,95361.00
2022-12-03T10:39:58.412Z,95360.78
2022-12-03T10:42:27.545Z,95359.19
2022-12-03T10:45:22.036Z,95349.06
2022-12-03T10:48:11.831Z,95347.84
2022-12-03T10:50:48.236Z,95331.44
2022-12-03T10:53:16.443Z,95340.75
2022-12-03T10:55:48.788Z,95345.75
2022-12-03T10:58:23.232Z,95335.06
2022-12-03T11:00:54.559Z,95332.84
2022-12-03T11:03:24.339Z,95328.84
2022-12-03T11:05:53.588Z,95327.56
2022-12-03T11:08:23.441Z,95326.91
2022-12-03T11:10:59.099Z,95327.59
2022-12-03T11:13:48.951Z,95333.72
2022-12-03T11:16:59.695Z,95327.38
2022-12-03T11:19:45.552Z,95328.03
2022-12-03T11:22:26.844Z,95333.38
2022-12-03T11:25:28.012Z,95330.16
2022-12-03T11:28:33.232Z,95340.06
2022-12-03T11:31:03.077Z,95336.09
2022-12-03T11:33:33.414Z,95339.06
2022-12-03T11:36:13.528Z,95331.13
2022-12-03T11:38:54.077Z,95336.13
2022-12-03T11:41:33.009Z,95331.38
2022-12-03T11:44:29.743Z,95330.91
2022-12-03T11:47:09.646Z,95321.09
2022-12-03T11:49:47.196Z,95334.25
2022-12-03T11:52:23.138Z,95333.44
2022-12-03T11:54:54.454Z,95327.41
2022-12-03T11:57:35.944Z,95332.25
2022-12-03T12:00:08.997Z,95331.13
2022-12-03T12:02:36.768Z,95332.41
2022-12-03T12:05:24.676Z,95322.28
2022-12-03T12:07:56.106Z,95324.38
2022-12-03T12:10:53.975Z,95328.69
2022-12-03T12:13:48.997Z,95323.69
2022-12-03T12:16:50.171Z,95316.47
2022-12-03T12:19:40.782Z,95314.50
2022-12-03T12:22:33.311Z,95316.13
2022-12-03T12:25:02.708Z,95309.03
2022-12-03T12:27:34.118Z,95299.72
2022-12-03T12:30:03.168Z,95305.53
2022-12-03T12:32:32.926Z,95299.50
2022-12-03T12:35:03.571Z,95296.16
2022-12-03T12:37:46.350Z,95300.13
2022-12-03T12:40:20.636Z,95297.63
2022-12-03T12:42:52.263Z,95294.41
2022-12-03T12:45:22.433Z,95288.78
2022-12-03T12:47:54.748Z,95292.75
2022-12-03T12:50:22.992Z,95287.88
2022-12-03T12:52:54.578Z,95279.41
2022-12-03T12:55:26.129Z,95267.69
2022-12-03T12:57:56.907Z,95268.94
2022-12-03T13:00:25.974Z,95269.75
2022-12-03T13:02:58.631Z,95266.84
2022-12-03T13:05:28.812Z,95276.75
2022-12-03T13:08:05.889Z,95267.41
2022-12-03T13:10:40.060Z,95270.19
2022-12-03T13:13:30.569Z,95264.84
2022-12-03T13:16:06.460Z,95256.56
2022-12-03T13:18:40.678Z,95252.72
2022-12-03T13:21:26.171Z,95255.53
2022-12-03T13:23:56.983Z,95253.91
2022-12-03T13:26:38.214Z,95248.53
2022-12-03T13:29:15.053Z,95243.91
2022-12-03T13:31:52.102Z,95243.19
2022-12-03T13:34:23.075Z,95244.72
2022-12-03T13:36:58.434Z,95246.81
2022-12-03T13:39:34.430Z,95254.75
2022-12-03T13:42:35.372Z,95251.16
2022-12-03T13:45:27.781Z,95245.34
2022-12-03T13:47:58.576Z,95248.34
2022-12-03T13:50:45.828Z,95244.53
2022-12-03T13:53:24.781Z,95242.09
2022-12-03T13:56:03.563Z,95240.34
2022-12-03T13:58:40.443Z,95234.19
2022-12-03T14:01:11.227Z,95239.19
2022-12-03T14:03:40.937Z,95236.97
2022-12-03T14:06:08.813Z,95238.56
2022-12-03T14:08:37.324Z,95238.47
2022-12-03T14:11:09.234Z,95244.72
2022-12-03T14:13:36.906Z,95233.94
2022-12-03T14:16:07.621Z,95230.81
2022-12-03T14:18:35.370Z,95230.00
2022-12-03T14:21:04.726Z,95229.56
2022-12-03T14:23:36.378Z,95226.53
2022-12-03T14:26:04.089Z,95226.91
2022-12-03T14:28:37.580Z,95231.09
2022-12-03T14:31:05.254Z,95229.00
2022-12-03T14:33:32.959Z,95242.59
2022-12-03T14:36:02.734Z,95240.72
2022-12-03T14:38:30.524Z,95231.44
2022-12-03T14:40:58.265Z,95229.22
2022-12-03T14:43:29.083Z,95234.41
2022-12-03T14:45:58.193Z,95229.75
2022-12-03T14:48:28.508Z,95231.09
2022-12-03T14:50:56.182Z,95231.09
2022-12-03T14:53:27.451Z,95223.75
2022-12-03T14:55:59.818Z,95233.28
2022-12-03T14:58:27.546Z,95227.47
2022-12-03T15:00:58.475Z,95220.97
2022-12-03T15:03:27.586Z,95222.75
2022-12-03T15:05:55.286Z,95226.81
2022-12-03T15:08:23.186Z,95222.97
2022-12-03T15:10:50.876Z,95221.47
2022-12-03T15:13:20.445Z,95211.25
2022-12-03T15:15:48.136Z,95222.53
2022-12-03T15:18:17.759Z,95239.25
2022-12-03T15:20:49.508Z,95239.03
2022-12-03T15:23:17.374Z,95234.84
2022-12-03T15:25:48.432Z,95232.28
2022-12-03T15:28:16.131Z,95227.97
2022-12-03T15:30:49.582Z,95224.84
2022-12-03T15:33:23.541Z,95221.59
2022-12-03T15:35:52.941Z,95208.91
2022-12-03T15:38:23.504Z,95223.44
2022-12-03T15:40:51.219Z,95219.03
2022-12-03T15:43:20.805Z,95217.91
2022-12-03T15:45:48.559Z,95218.44
2022-12-03T15:48:16.288Z,95217.66
2022-12-03T15:50:44.242Z,95211.59
2022-12-03T15:53:13.295Z,95208.56
2022-12-03T15:55:40.988Z,95210.59
2022-12-03T15:58:08.890Z,95209.78
2022-12-03T16:00:40.298Z,95217.41
2022-12-03T16:03:09.148Z,95223.00
2022-12-03T16:05:38.694Z,95226.72
2022-12-03T16:08:06.508Z,95225.56
2022-12-03T16:10:35.646Z,95218.59
2022-12-03T16:13:03.384Z,95223.47
2022-12-03T16:15:33.430Z,95223.09
2022-12-03T16:18:01.135Z,95215.31
2022-12-03T16:20:28.887Z,95218.94
2022-12-03T16:22:58.582Z,95214.19
2022-12-03T16:25:26.327Z,95219.53
2022-12-03T16:27:56.427Z,95221.13
2022-12-03T16:30:24.644Z,95219.03
2022-12-03T16:32:52.670Z,95208.72
2022-12-03T16:35:20.366Z,95205.66
2022-12-03T16:37:48.020Z,95209.88
2022-12-03T16:40:18.956Z,95209.41
2022-12-03T16:42:49.471Z,95214.88
2022-12-03T16:45:38.541Z,95217.91
2022-12-03T16:48:06.712Z,95212.44
2022-12-03T16:50:37.771Z,95209.31
2022-12-03T16:53:06.138Z,95221.63
2022-12-03T16:55:34.397Z,95211.66
2022-12-03T16:58:02.221Z,95213.50
2022-12-03T17:00:31.584Z,95214.88
2022-12-03T17:02:59.731Z,95214.31
2022-12-03T17:05:27.542Z,95216.63
2022-12-03T17:07:55.275Z,95214.66
2022-12-03T17:10:23.072Z,95213.38
2022-12-03T17:15:41.060Z,95214.06
2022-12-03T17:18:12.205Z,95206.97
2022-12-03T17:20:40.444Z,95200.16
2022-12-03T17:23:08.376Z,95203.88
2022-12-03T17:25:36.313Z,95192.59
2022-12-03T17:28:04.524Z,95195.84
2022-12-03T17:30:32.283Z,95194.88
2022-12-03T17:33:01.395Z,95202.91
2022-12-03T17:35:29.543Z,95195.72
2022-12-03T17:37:57.413Z,95192.72
2022-12-03T17:40:25.151Z,95191.63
2022-12-03T17:42:52.915Z,95194.31
2022-12-03T17:45:20.637Z,95191.78
2022-12-03T17:47:48.348Z,95185.03
2022-12-03T17:50:17.574Z,95184.22
2022-12-03T17:52:45.265Z,95182.13
2022-12-03T17:55:22.292Z,95180.28
2022-12-03T17:57:55.743Z,95191.09
2022-12-03T18:00:23.596Z,95186.78
2022-12-03T18:02:51.308Z,95185.16
2022-12-03T18:05:20.525Z,95184.59
2022-12-03T18:07:48.343Z,95186.31
2022-12-03T18:10:16.460Z,95185.28
2022-12-03T18:12:44.281Z,95186.47
2022-12-03T18:15:12.276Z,95188.41
2022-12-03T18:17:39.955Z,95189.56
2022-12-03T18:20:09.797Z,95194.47
2022-12-03T18:22:39.124Z,95187.81
2022-12-03T18:25:07.985Z,95186.44
2022-12-03T18:27:36.961Z,95184.59
2022-12-03T18:30:05.543Z,95182.03
2022-12-03T18:32:33.290Z,95168.69
2022-12-03T18:35:01.035Z,95177.50
2022-12-03T18:37:30.793Z,95179.50
2022-12-03T18:40:00.624Z,95164.00
2022-12-03T18:42:28.587Z,95171.56
2022-12-03T18:44:57.723Z,95169.63
2022-12-03T18:47:28.213Z,95166.72
2022-12-03T18:49:56.909Z,95163.00
2022-12-03T18:52:25.962Z,95171.84
2022-12-03T18:54:55.186Z,95172.19
2022-12-03T18:57:24.893Z,95181.47
2022-12-03T18:59:53.411Z,95177.63
2022-12-03T19:05:10.827Z,95185.06
2022-12-03T19:07:38.683Z,95189.81
2022-12-03T19:10:07.465Z,95185.28
2022-12-03T19:12:36.573Z,95192.94
2022-12-03T19:15:05.374Z,95189.38
2022-12-03T19:17:36.052Z,95174.69
2022-12-03T19:20:05.299Z,95177.03
2022-12-03T19:22:33.034Z,95180.97
2022-12-03T19:25:00.729Z,95190.03
2022-12-03T19:27:30.125Z,95174.81
2022-12-03T19:29:59.996Z,95171.34
2022-12-03T19:32:27.706Z,95173.09
2022-12-03T19:34:55.428Z,95179.00
2022-12-03T19:37:23.183Z,95171.34
2022-12-03T19:39:53.943Z,95161.47
2022-12-03T19:42:21.908Z,95162.28
2022-12-03T19:44:49.595Z,95168.81
2022-12-03T19:47:18.715Z,95169.94
2022-12-03T19:49:46.395Z,95167.50
2022-12-03T19:52:14.140Z,95170.97
2022-12-03T19:54:41.889Z,95161.94
2022-12-03T19:57:09.681Z,95164.81
2022-12-03T19:59:37.445Z,95166.22
2022-12-03T20:02:05.266Z,95171.13
2022-12-03T20:04:34.520Z,95166.59
2022-12-03T20:07:02.302Z,95172.53
2022-12-03T20:09:30.085Z,95168.09
2022-12-03T20:11:57.821Z,95169.03
2022-12-03T20:14:26.268Z,95169.38
2022-12-03T20:16:54.027Z,95167.53
2022-12-03T20:19:21.770Z,95154.75
2022-12-03T20:21:50.853Z,95154.75
2022-12-03T20:24:19.427Z,95156.50
2022-12-03T20:26:49.800Z,95149.75
2022-12-03T20:29:17.967Z,95147.16
2022-12-03T20:31:45.911Z,95142.56
2022-12-03T20:34:13.760Z,95149.63
2022-12-03T20:36:44.146Z,95141.97
2022-12-03T20:39:13.393Z,95136.16
2022-12-03T20:41:41.229Z,95135.72
2022-12-03T20:44:09.690Z,95127.19
2022-12-03T20:46:37.499Z,95128.47
2022-12-03T20:49:05.871Z,95135.56
2022-12-03T20:51:33.684Z,95131.41
2022-12-03T20:54:02.597Z,95140.22
2022-12-03T20:56:33.432Z,95133.69
2022-12-03T20:59:01.917Z,95135.13
2022-12-03T21:01:30.130Z,95138.47
2022-12-03T21:04:00.564Z,95132.31
2022-12-03T21:06:29.978Z,95120.16
2022-12-03T21:09:00.616Z,95120.97
2022-12-03T21:11:30.757Z,95112.72
2022-12-03T21:14:00.873Z,95102.03
2022-12-03T21:17:05.822Z,95109.69
2022-12-03T21:19:21.862Z,95111.09
2022-12-03T21:21:49.903Z,95111.91
2022-12-03T21:24:17.705Z,95104.44
2022-12-03T21:26:45.539Z,95108.06
2022-12-03T21:29:14.633Z,95104.69
2022-12-03T21:31:42.457Z,95105.41
2022-12-03T21:34:13.088Z,95112.47
2022-12-03T21:36:40.864Z,95095.28
2022-12-03T21:39:08.827Z,95093.56
2022-12-03T21:41:36.651Z,95088.81
2022-12-03T21:44:04.980Z,95092.50
2022-12-03T21:47:10.359Z,95097.03
2022-12-03T21:49:24.096Z,95096.91
2022-12-03T21:51:53.121Z,95100.88
2022-12-03T21:54:20.848Z,95100.41
2022-12-03T21:56:48.584Z,95100.06
2022-12-03T21:59:16.494Z,95093.91
2022-12-03T22:01:47.361Z,95116.88
2022-12-03T22:04:15.540Z,95115.13
2022-12-03T22:06:43.402Z,95113.75
2022-12-03T22:09:11.181Z,95104.94
2022-12-03T22:11:38.924Z,95100.72
2022-12-03T22:14:09.908Z,95100.25
2022-12-03T22:16:39.899Z,95100.53
2022-12-03T22:19:09.118Z,95109.00
2022-12-03T22:21:36.950Z,95109.69
2022-12-03T22:24:05.120Z,95106.31
2022-12-03T22:26:35.217Z,95101.44
2022-12-03T22:29:03.672Z,95098.63
2022-12-03T22:31:31.496Z,95093.19
2022-12-03T22:33:59.330Z,95091.66
2022-12-03T22:36:28.392Z,95096.19
2022-12-03T22:38:56.143Z,95082.28
2022-12-03T22:41:24.206Z,95079.34
2022-12-03T22:43:51.973Z,95079.72
2022-12-03T22:46:19.827Z,95084.25
2022-12-03T22:48:48.238Z,95079.97
2022-12-03T22:51:19.647Z,95069.41
2022-12-03T22:53:49.301Z,95068.81
2022-12-03T22:56:17.281Z,95075.44
2022-12-03T23:03:29.592Z,95078.81
2022-12-03T23:05:57.386Z,95075.25
2022-12-03T23:08:27.343Z,95070.44
2022-12-03T23:10:55.041Z,95063.34
2022-12-03T23:13:22.841Z,95062.44
2022-12-03T23:15:53.030Z,95061.16
2022-12-03T23:18:21.358Z,95057.78
2022-12-03T23:20:54.021Z,95058.59
2022-12-03T23:23:24.006Z,95054.88
2022-12-03T23:25:57.748Z,95051.75
2022-12-03T23:28:25.586Z,95042.28
2022-12-03T23:30:53.351Z,95047.22
2022-12-03T23:33:21.467Z,95058.47
2022-12-03T23:35:53.949Z,95045.81
2022-12-03T23:38:21.913Z,95048.50
2022-12-03T23:40:49.842Z,95034.31
2022-12-03T23:43:17.664Z,95036.75
2022-12-03T23:45:45.359Z,95030.38
2022-12-03T23:48:13.071Z,95024.44
2022-12-03T23:50:41.396Z,95023.75
2022-12-03T23:53:10.548Z,95019.22
2022-12-03T23:55:44.038Z,95017.19
2022-12-03T23:58:14.609Z,95021.38
